createdAt,value
2023-04-09T00:00:20.862Z,96937.97
2023-04-09T00:02:47.564Z,96927.53
2023-04-09T00:05:14.414Z,96894.19
2023-04-09T00:07:43.210Z,96957.91
2023-04-09T00:10:11.332Z,96934.34
2023-04-09T00:12:38.126Z,96938.78
2023-04-09T00:15:05.417Z,96927.53
2023-04-09T00:17:32.232Z,96962.28
2023-04-09T00:19:59.033Z,96949.13
2023-04-09T00:22:25.794Z,96980.28
2023-04-09T00:24:52.497Z,96947.47
2023-04-09T00:27:19.379Z,96960.31
2023-04-09T00:29:46.144Z,96946.22
2023-04-09T00:32:13.348Z,96980.13
2023-04-09T00:34:40.369Z,96966.56
2023-04-09T00:37:07.085Z,96963.16
2023-04-09T00:39:33.715Z,96947.03
2023-04-09T00:42:02.948Z,96978.56
2023-04-09T00:44:30.435Z,96955.63
2023-04-09T00:46:59.873Z,96984.63
2023-04-09T00:49:27.177Z,96979.91
2023-04-09T00:51:54.152Z,96981.97
2023-04-09T00:54:21.063Z,96961.63
2023-04-09T00:56:47.843Z,96977.78
2023-04-09T00:59:15.431Z,96986.16
2023-04-09T01:01:42.134Z,96970.78
2023-04-09T01:04:08.898Z,96974.16
2023-04-09T01:06:52.672Z,96994.56
2023-04-09T01:09:33.654Z,96985.72
2023-04-09T01:12:12.287Z,96990.47
2023-04-09T01:14:48.021Z,96992.03
2023-04-09T01:17:38.391Z,96979.50
2023-04-09T01:20:08.694Z,96984.22
2023-04-09T01:23:09.495Z,96983.44
2023-04-09T01:25:51.569Z,96976.09
2023-04-09T01:28:27.347Z,96905.38
2023-04-09T01:31:04.143Z,96950.78
2023-04-09T01:33:32.330Z,96940.63
2023-04-09T01:36:01.056Z,96977.94
2023-04-09T01:38:27.840Z,96960.97
2023-04-09T01:40:56.520Z,96976.13
2023-04-09T01:43:24.899Z,96975.06
2023-04-09T01:45:51.987Z,96953.63
2023-04-09T01:48:19.784Z,96964.59
2023-04-09T01:50:47.618Z,96950.72
2023-04-09T01:53:14.972Z,96967.44
2023-04-09T01:55:41.630Z,96975.50
2023-04-09T01:58:08.277Z,96948.56
2023-04-09T02:00:41.228Z,96952.22
2023-04-09T02:03:17.456Z,96976.78
2023-04-09T02:06:10.452Z,96987.41
2023-04-09T02:08:37.892Z,96954.72
2023-04-09T02:11:06.842Z,96985.28
2023-04-09T02:13:34.942Z,96966.66
2023-04-09T02:16:03.665Z,96968.75
2023-04-09T02:18:31.006Z,96986.19
2023-04-09T02:20:58.661Z,96967.84
2023-04-09T02:23:27.540Z,96994.25
2023-04-09T02:25:54.472Z,96965.72
2023-04-09T02:28:21.173Z,96967.34
2023-04-09T02:30:47.867Z,96956.06
2023-04-09T02:33:14.562Z,96992.44
2023-04-09T02:35:41.579Z,96987.22
2023-04-09T02:38:13.686Z,96989.84
2023-04-09T02:40:41.478Z,96993.22
2023-04-09T02:43:09.780Z,96982.06
2023-04-09T02:45:36.581Z,96995.28
2023-04-09T02:48:03.766Z,96974.38
2023-04-09T02:50:37.674Z,96975.94
2023-04-09T02:53:04.317Z,96972.66
2023-04-09T02:55:31.164Z,96973.94
2023-04-09T02:57:57.870Z,96983.56
2023-04-09T03:00:24.540Z,96969.03
2023-04-09T03:02:51.570Z,96984.44
2023-04-09T03:05:18.363Z,96986.22
2023-04-09T03:07:45.056Z,96973.31
2023-04-09T03:10:11.819Z,97008.09
2023-04-09T03:12:38.454Z,96998.00
2023-04-09T03:15:05.897Z,96993.56
2023-04-09T03:17:32.701Z,96975.28
2023-04-09T03:19:59.520Z,96975.06
2023-04-09T03:22:38.125Z,96980.31
2023-04-09T03:25:10.992Z,96976.00
2023-04-09T03:27:37.778Z,97014.22
2023-04-09T03:30:04.999Z,97000.09
2023-04-09T03:32:40.751Z,97004.19
2023-04-09T03:35:09.048Z,96972.41
2023-04-09T03:37:35.801Z,96971.75
2023-04-09T03:40:03.151Z,97001.38
2023-04-09T03:42:31.282Z,96981.91
2023-04-09T03:44:57.950Z,96987.19
2023-04-09T03:47:33.302Z,96996.91
2023-04-09T03:50:00.483Z,97001.88
2023-04-09T03:52:32.735Z,96982.31
2023-04-09T03:55:06.518Z,96993.31
2023-04-09T03:57:33.139Z,96980.09
2023-04-09T04:00:00.282Z,96989.00
2023-04-09T04:02:30.402Z,96958.00
2023-04-09T04:05:02.187Z,96983.63
2023-04-09T04:07:33.881Z,96972.72
2023-04-09T04:10:09.610Z,97001.75
2023-04-09T04:12:36.384Z,96966.09
2023-04-09T04:15:07.595Z,96987.00
2023-04-09T04:17:42.861Z,96991.06
2023-04-09T04:20:27.274Z,96998.69
2023-04-09T04:23:01.794Z,96987.59
2023-04-09T04:25:29.077Z,96970.31
2023-04-09T04:27:56.378Z,96989.38
2023-04-09T04:30:28.244Z,97012.81
2023-04-09T04:33:00.300Z,96979.63
2023-04-09T04:35:30.386Z,97021.41
2023-04-09T04:38:01.520Z,97029.81
2023-04-09T04:40:28.977Z,96997.28
2023-04-09T04:43:00.148Z,96926.75
2023-04-09T04:45:27.202Z,97002.13
2023-04-09T04:47:59.548Z,96980.28
2023-04-09T04:50:26.219Z,96980.94
2023-04-09T04:53:03.517Z,97000.06
2023-04-09T04:55:39.631Z,96952.59
2023-04-09T04:58:08.031Z,96993.19
2023-04-09T05:00:42.922Z,96986.63
2023-04-09T05:03:09.688Z,97019.28
2023-04-09T05:05:59.483Z,97004.31
2023-04-09T05:08:30.965Z,96991.81
2023-04-09T05:10:58.155Z,97020.38
2023-04-09T05:13:32.256Z,97027.69
2023-04-09T05:15:59.699Z,97002.69
2023-04-09T05:18:26.767Z,96982.84
2023-04-09T05:20:53.419Z,97029.66
2023-04-09T05:23:20.309Z,97019.22
2023-04-09T05:25:50.179Z,97029.66
2023-04-09T05:28:25.009Z,97012.06
2023-04-09T05:31:02.374Z,97017.31
2023-04-09T05:33:35.362Z,97026.81
2023-04-09T05:36:02.105Z,97029.22
2023-04-09T05:38:28.780Z,96998.38
2023-04-09T05:40:58.262Z,97012.69
2023-04-09T05:43:25.440Z,97023.66
2023-04-09T05:45:52.239Z,97038.84
2023-04-09T05:48:19.711Z,97046.41
2023-04-09T05:50:55.553Z,97041.22
2023-04-09T05:53:25.344Z,97045.47
2023-04-09T05:55:52.093Z,97053.69
2023-04-09T05:58:22.761Z,96963.41
2023-04-09T06:00:51.694Z,97025.03
2023-04-09T06:03:18.953Z,97041.78
2023-04-09T06:05:46.628Z,97044.13
2023-04-09T06:08:14.101Z,97052.63
2023-04-09T06:10:41.624Z,97034.88
2023-04-09T06:13:09.710Z,97052.06
2023-04-09T06:15:38.297Z,97032.75
2023-04-09T06:18:05.094Z,97034.88
2023-04-09T06:20:31.749Z,97050.06
2023-04-09T06:22:58.519Z,97029.16
2023-04-09T06:25:25.307Z,97054.19
2023-04-09T06:27:52.171Z,97053.78
2023-04-09T06:30:18.788Z,97030.56
2023-04-09T06:32:54.590Z,97059.66
2023-04-09T06:35:21.897Z,97017.13
2023-04-09T06:37:48.635Z,97070.19
2023-04-09T06:40:15.530Z,97047.44
2023-04-09T06:42:42.141Z,97049.56
2023-04-09T06:45:20.000Z,97052.16
2023-04-09T06:47:46.821Z,97066.00
2023-04-09T06:50:13.550Z,97059.38
2023-04-09T06:52:40.488Z,97066.38
2023-04-09T06:55:07.486Z,97087.44
2023-04-09T06:57:34.090Z,97094.84
2023-04-09T07:00:00.980Z,97062.00
2023-04-09T07:02:28.038Z,97073.69
2023-04-09T07:04:54.984Z,97079.00
2023-04-09T07:07:23.781Z,97094.66
2023-04-09T07:09:53.563Z,97106.88
2023-04-09T07:12:35.131Z,97104.72
2023-04-09T07:15:03.917Z,97090.97
2023-04-09T07:17:34.600Z,97088.13
2023-04-09T07:20:01.513Z,97083.63
2023-04-09T07:22:30.680Z,97079.16
2023-04-09T07:24:57.606Z,97099.81
2023-04-09T07:27:27.978Z,97106.91
2023-04-09T07:29:56.802Z,97100.97
2023-04-09T07:32:24.646Z,97087.34
2023-04-09T07:34:52.934Z,97083.09
2023-04-09T07:37:20.791Z,97112.88
2023-04-09T07:39:48.144Z,97089.13
2023-04-09T07:42:20.135Z,97084.81
2023-04-09T07:44:47.583Z,97062.00
2023-04-09T07:47:14.856Z,97104.81
2023-04-09T07:49:41.604Z,97088.47
2023-04-09T07:52:08.319Z,97082.06
2023-04-09T07:54:35.499Z,97092.72
2023-04-09T07:57:02.749Z,97087.91
2023-04-09T07:59:29.711Z,97115.63
2023-04-09T08:01:56.878Z,97101.13
2023-04-09T08:04:23.738Z,97091.47
2023-04-09T08:06:51.229Z,97096.13
2023-04-09T08:09:18.563Z,97088.31
2023-04-09T08:11:48.314Z,97103.00
2023-04-09T08:14:16.507Z,97122.06
2023-04-09T08:16:45.725Z,97122.06
2023-04-09T08:19:13.515Z,97106.59
2023-04-09T08:21:44.206Z,97125.25
2023-04-09T08:24:11.982Z,97070.97
2023-04-09T08:26:42.554Z,97126.22
2023-04-09T08:29:11.493Z,97128.38
2023-04-09T08:31:38.293Z,97104.78
2023-04-09T08:34:05.916Z,97126.81
2023-04-09T08:36:34.441Z,97085.88
2023-04-09T08:39:01.794Z,97127.19
2023-04-09T08:41:29.459Z,97120.56
2023-04-09T08:43:58.854Z,97118.59
2023-04-09T08:46:27.200Z,97126.81
2023-04-09T08:48:54.362Z,97129.47
2023-04-09T08:51:24.984Z,97123.41
2023-04-09T08:54:01.388Z,97112.81
2023-04-09T08:56:30.466Z,97101.16
2023-04-09T08:58:57.683Z,97114.44
2023-04-09T09:01:27.136Z,97104.88
2023-04-09T09:03:54.361Z,97123.94
2023-04-09T09:06:22.539Z,97089.69
2023-04-09T09:09:12.121Z,97122.69
2023-04-09T09:11:46.806Z,97127.09
2023-04-09T09:14:16.121Z,97127.28
2023-04-09T09:16:56.651Z,97130.75
2023-04-09T09:19:26.547Z,97126.81
2023-04-09T09:22:00.563Z,97129.34
2023-04-09T09:24:27.755Z,97145.47
2023-04-09T09:26:54.793Z,97135.13
2023-04-09T09:29:21.795Z,97093.06
2023-04-09T09:31:52.973Z,97133.72
2023-04-09T09:34:21.080Z,97124.22
2023-04-09T09:36:48.357Z,97127.91
2023-04-09T09:39:17.415Z,97138.00
2023-04-09T09:41:46.020Z,97106.81
2023-04-09T09:44:30.090Z,97117.16
2023-04-09T09:46:58.757Z,97080.97
2023-04-09T09:49:25.422Z,97132.44
2023-04-09T09:51:54.372Z,97103.53
2023-04-09T09:54:25.474Z,97112.56
2023-04-09T09:56:55.958Z,97133.72
2023-04-09T09:59:27.056Z,97129.66
2023-04-09T10:02:01.284Z,97079.31
2023-04-09T10:04:30.304Z,97127.50
2023-04-09T10:06:57.937Z,97102.59
2023-04-09T10:09:28.036Z,97099.84
2023-04-09T10:11:56.013Z,97114.44
2023-04-09T10:14:23.168Z,97093.25
2023-04-09T10:16:49.912Z,97095.25
2023-04-09T10:19:17.134Z,97120.88
2023-04-09T10:22:16.108Z,97114.22
2023-04-09T10:24:43.255Z,97112.97
2023-04-09T10:27:16.508Z,97105.75
2023-04-09T10:29:49.051Z,97127.00
2023-04-09T10:32:25.114Z,97092.34
2023-04-09T10:34:52.347Z,97118.97
2023-04-09T10:37:24.315Z,97120.25
2023-04-09T10:39:52.589Z,97095.53
2023-04-09T10:42:24.897Z,97095.13
2023-04-09T10:45:11.660Z,97106.03
2023-04-09T10:47:40.063Z,97105.91
2023-04-09T10:50:19.925Z,97108.75
2023-04-09T10:52:47.303Z,97108.22
2023-04-09T10:55:34.474Z,97111.25
2023-04-09T10:58:01.155Z,97090.56
2023-04-09T11:00:27.848Z,97081.75
2023-04-09T11:03:10.701Z,97112.16
2023-04-09T11:05:40.351Z,97040.69
2023-04-09T11:08:09.890Z,97101.28
2023-04-09T11:10:38.703Z,97072.44
2023-04-09T11:13:05.913Z,97093.50
2023-04-09T11:15:35.068Z,97109.81
2023-04-09T11:18:02.386Z,97105.78
2023-04-09T11:20:31.059Z,97099.84
2023-04-09T11:22:59.887Z,97093.50
2023-04-09T11:25:28.369Z,97050.16
2023-04-09T11:27:55.677Z,97100.66
2023-04-09T11:30:22.325Z,97070.38
2023-04-09T11:32:50.023Z,97097.91
2023-04-09T11:35:19.088Z,97086.19
2023-04-09T11:37:46.612Z,97095.34
2023-04-09T11:40:18.233Z,97086.34
2023-04-09T11:42:45.932Z,97078.75
2023-04-09T11:45:13.394Z,97061.25
2023-04-09T11:47:41.891Z,97091.91
2023-04-09T11:50:10.395Z,97067.13
2023-04-09T11:52:37.441Z,97081.28
2023-04-09T11:55:05.544Z,97062.19
2023-04-09T11:57:46.509Z,97070.81
2023-04-09T12:00:17.627Z,97056.00
2023-04-09T12:02:47.681Z,97080.25
2023-04-09T12:05:32.535Z,97073.06
2023-04-09T12:08:05.142Z,97086.63
2023-04-09T12:10:34.203Z,97088.00
2023-04-09T12:13:06.592Z,97074.56
2023-04-09T12:15:36.060Z,97074.72
2023-04-09T12:18:03.710Z,97054.84
2023-04-09T12:20:31.607Z,97083.53
2023-04-09T12:23:03.698Z,97067.84
2023-04-09T12:25:38.400Z,97032.03
2023-04-09T12:28:06.637Z,97046.31
2023-04-09T12:30:33.862Z,97058.63
2023-04-09T12:33:01.090Z,97055.66
2023-04-09T12:35:28.319Z,97044.25
2023-04-09T12:37:55.420Z,97015.75
2023-04-09T12:40:22.779Z,97042.50
2023-04-09T12:42:49.468Z,97036.47
2023-04-09T12:45:18.133Z,97054.16
2023-04-09T12:47:45.559Z,97051.97
2023-04-09T12:50:13.160Z,97066.38
2023-04-09T12:52:40.140Z,97058.97
2023-04-09T12:55:07.465Z,97049.41
2023-04-09T12:57:34.508Z,97051.16
2023-04-09T13:00:01.161Z,97042.50
2023-04-09T13:02:27.917Z,97022.34
2023-04-09T13:04:54.698Z,96944.41
2023-04-09T13:07:21.421Z,97042.66
2023-04-09T13:09:50.626Z,96994.75
2023-04-09T13:12:17.502Z,97017.69
2023-04-09T13:14:46.672Z,97036.81
2023-04-09T13:17:13.553Z,97007.81
2023-04-09T13:19:42.609Z,97027.63
2023-04-09T13:22:09.653Z,96987.06
2023-04-09T13:24:36.546Z,97015.59
2023-04-09T13:27:09.471Z,97033.97
2023-04-09T13:29:36.309Z,97019.94
2023-04-09T13:32:07.179Z,97019.91
2023-04-09T13:34:36.945Z,97011.09
2023-04-09T13:37:03.741Z,97021.50
2023-04-09T13:39:30.969Z,97016.63
2023-04-09T13:41:57.696Z,96991.31
2023-04-09T13:44:27.624Z,96994.97
2023-04-09T13:46:54.260Z,96985.81
2023-04-09T13:49:21.172Z,96950.94
2023-04-09T13:51:49.012Z,97022.09
2023-04-09T13:54:15.652Z,97034.91
2023-04-09T13:56:42.510Z,97021.28
2023-04-09T13:59:09.112Z,96997.03
2023-04-09T14:01:36.313Z,96999.25
2023-04-09T14:04:03.323Z,97008.25
2023-04-09T14:06:31.221Z,96971.63
2023-04-09T14:08:57.872Z,96980.91
2023-04-09T14:11:24.518Z,96990.25
2023-04-09T14:13:51.398Z,96979.66
2023-04-09T14:16:19.748Z,97008.13
2023-04-09T14:18:46.452Z,96997.88
2023-04-09T14:21:13.391Z,97012.94
2023-04-09T14:23:40.479Z,97006.41
2023-04-09T14:26:07.427Z,96981.69
2023-04-09T14:28:34.098Z,96980.59
2023-04-09T14:31:01.197Z,97001.47
2023-04-09T14:33:28.023Z,96998.47
2023-04-09T14:35:54.942Z,96982.38
2023-04-09T14:38:23.966Z,96977.75
2023-04-09T14:40:51.458Z,96987.25
2023-04-09T14:43:18.413Z,96997.53
2023-04-09T14:45:45.104Z,97000.53
2023-04-09T14:48:11.789Z,96966.31
2023-04-09T14:50:38.556Z,96982.00
2023-04-09T14:53:05.214Z,96972.34
2023-04-09T14:55:31.868Z,96978.75
2023-04-09T14:57:59.636Z,97002.72
2023-04-09T15:00:26.600Z,96998.66
2023-04-09T15:02:54.435Z,96958.19
2023-04-09T15:05:21.390Z,96989.34
2023-04-09T15:07:48.093Z,96980.94
2023-04-09T15:10:15.454Z,96984.50
2023-04-09T15:12:42.261Z,96985.44
2023-04-09T15:15:09.462Z,96964.88
2023-04-09T15:17:36.562Z,96986.69
2023-04-09T15:20:04.178Z,96971.00
2023-04-09T15:22:30.916Z,96848.47
2023-04-09T15:24:57.653Z,96992.59
2023-04-09T15:27:24.497Z,96987.50
2023-04-09T15:29:51.940Z,97023.31
2023-04-09T15:32:18.837Z,97019.94
2023-04-09T15:34:45.470Z,97033.47
2023-04-09T15:37:12.160Z,96993.47
2023-04-09T15:39:38.867Z,97024.91
2023-04-09T15:42:06.775Z,96988.72
2023-04-09T15:44:36.226Z,97005.72
2023-04-09T15:47:03.023Z,97001.34
2023-04-09T15:49:29.945Z,96999.28
2023-04-09T15:51:56.563Z,97001.53
2023-04-09T15:54:23.274Z,96970.31
2023-04-09T15:56:49.876Z,96945.25
2023-04-09T15:59:16.897Z,96944.66
2023-04-09T16:01:44.286Z,96973.00
2023-04-09T16:04:11.124Z,96979.06
2023-04-09T16:06:39.401Z,96998.13
2023-04-09T16:09:06.157Z,96973.69
2023-04-09T16:11:35.868Z,96950.91
2023-04-09T16:14:02.683Z,96989.78
2023-04-09T16:16:29.664Z,96986.75
2023-04-09T16:18:56.411Z,96973.59
2023-04-09T16:21:23.078Z,96984.75
2023-04-09T16:23:49.782Z,96979.59
2023-04-09T16:26:16.534Z,96961.28
2023-04-09T16:28:43.211Z,96963.66
2023-04-09T16:31:09.915Z,96961.97
2023-04-09T16:33:36.567Z,96933.56
2023-04-09T16:36:03.382Z,96976.59
2023-04-09T16:38:31.250Z,96980.91
2023-04-09T16:40:58.089Z,96995.47
2023-04-09T16:43:25.503Z,96995.31
2023-04-09T16:45:52.332Z,96934.03
2023-04-09T16:48:19.339Z,96960.84
2023-04-09T16:50:45.976Z,96958.06
2023-04-09T16:53:12.718Z,96983.34
2023-04-09T16:55:39.593Z,96965.78
2023-04-09T16:58:06.235Z,96986.56
2023-04-09T17:00:32.948Z,96968.03
2023-04-09T17:03:02.218Z,96963.16
2023-04-09T17:05:29.554Z,96968.91
2023-04-09T17:07:56.318Z,96979.53
2023-04-09T17:10:23.021Z,96928.94
2023-04-09T17:12:50.734Z,96978.09
2023-04-09T17:15:18.937Z,96941.13
2023-04-09T17:17:47.852Z,96950.69
2023-04-09T17:20:14.589Z,96959.25
2023-04-09T17:22:41.245Z,96975.81
2023-04-09T17:25:08.688Z,96928.97
2023-04-09T17:27:35.943Z,96977.22
2023-04-09T17:30:05.601Z,96950.50
2023-04-09T17:32:32.295Z,96963.47
2023-04-09T17:34:59.672Z,96981.88
2023-04-09T17:37:28.513Z,96981.03
2023-04-09T17:39:55.237Z,96974.56
2023-04-09T17:42:23.494Z,96983.97
2023-04-09T17:44:50.541Z,96949.22
2023-04-09T17:47:17.336Z,96906.44
2023-04-09T17:49:44.395Z,96977.69
2023-04-09T17:52:11.097Z,96954.78
2023-04-09T17:54:38.726Z,96978.25
2023-04-09T17:57:07.914Z,96988.50
2023-04-09T17:59:34.695Z,96985.19
2023-04-09T18:02:02.364Z,96965.38
2023-04-09T18:04:29.590Z,96994.06
2023-04-09T18:06:56.611Z,96961.00
2023-04-09T18:09:23.366Z,96967.84
2023-04-09T18:11:54.965Z,96957.19
2023-04-09T18:14:22.902Z,96995.31
2023-04-09T18:16:49.751Z,97001.13
2023-04-09T18:19:16.599Z,96971.09
2023-04-09T18:21:43.291Z,96985.94
2023-04-09T18:24:09.920Z,96996.06
2023-04-09T18:26:36.721Z,96989.69
2023-04-09T18:29:03.614Z,96977.22
2023-04-09T18:31:30.392Z,97004.16
2023-04-09T18:33:57.259Z,96999.81
2023-04-09T18:36:23.951Z,96985.28
2023-04-09T18:38:50.655Z,97008.31
2023-04-09T18:41:27.243Z,97006.81
2023-04-09T18:43:54.290Z,96988.91
2023-04-09T18:46:21.057Z,96979.91
2023-04-09T18:48:47.716Z,96979.97
2023-04-09T18:51:14.771Z,97010.19
2023-04-09T18:53:42.160Z,97008.50
2023-04-09T18:56:09.369Z,97017.06
2023-04-09T18:58:36.418Z,97024.97
2023-04-09T19:01:12.785Z,97025.63
2023-04-09T19:03:40.433Z,97035.69
2023-04-09T19:06:15.079Z,97032.34
2023-04-09T19:08:41.976Z,97017.25
2023-04-09T19:11:08.807Z,96975.88
2023-04-09T19:13:36.833Z,97014.47
2023-04-09T19:16:04.350Z,97022.63
2023-04-09T19:18:31.992Z,97051.19
2023-04-09T19:20:58.604Z,97046.75
2023-04-09T19:23:26.260Z,97044.50
2023-04-09T19:25:55.263Z,97057.34
2023-04-09T19:28:23.059Z,97041.16
2023-04-09T19:30:53.721Z,97024.44
2023-04-09T19:33:24.176Z,97062.78
2023-04-09T19:35:52.038Z,97059.78
2023-04-09T19:38:19.552Z,97066.97
2023-04-09T19:40:47.161Z,97051.91
2023-04-09T19:43:17.289Z,97043.22
2023-04-09T19:45:44.350Z,97072.44
2023-04-09T19:48:12.017Z,97044.78
2023-04-09T19:50:41.030Z,97049.88
2023-04-09T19:53:07.861Z,97049.63
2023-04-09T19:55:35.055Z,97038.31
2023-04-09T19:58:02.153Z,97072.28
2023-04-09T20:00:29.222Z,97053.69
2023-04-09T20:02:57.209Z,97038.44
2023-04-09T20:05:24.593Z,97076.88
2023-04-09T20:07:52.822Z,97067.69
2023-04-09T20:10:19.900Z,97047.47
2023-04-09T20:12:48.378Z,97070.53
2023-04-09T20:15:15.779Z,97044.19
2023-04-09T20:17:42.748Z,97028.06
2023-04-09T20:20:09.839Z,97069.22
2023-04-09T20:22:36.664Z,97047.38
2023-04-09T20:25:23.585Z,97077.50
2023-04-09T20:27:52.693Z,97004.41
2023-04-09T20:30:19.783Z,96993.94
2023-04-09T20:32:49.792Z,97075.41
2023-04-09T20:35:18.803Z,97018.31
2023-04-09T20:37:54.923Z,97038.44
2023-04-09T20:40:22.452Z,97055.34
2023-04-09T20:42:59.309Z,97079.59
2023-04-09T20:45:29.491Z,97064.94
2023-04-09T20:47:57.178Z,97077.00
2023-04-09T20:50:24.473Z,97017.66
2023-04-09T20:53:05.496Z,97047.03
2023-04-09T20:55:53.049Z,97086.53
2023-04-09T20:58:19.942Z,97051.66
2023-04-09T21:00:46.669Z,97058.91
2023-04-09T21:03:14.363Z,97056.59
2023-04-09T21:05:41.579Z,97081.16
2023-04-09T21:08:08.338Z,97065.63
2023-04-09T21:10:35.070Z,97043.47
2023-04-09T21:13:08.840Z,97062.94
2023-04-09T21:15:35.552Z,97058.75
2023-04-09T21:18:02.624Z,97044.91
2023-04-09T21:20:29.334Z,97064.53
2023-04-09T21:22:56.219Z,97058.53
2023-04-09T21:25:27.558Z,97087.06
2023-04-09T21:27:54.337Z,97071.13
2023-04-09T21:30:21.140Z,97069.84
2023-04-09T21:32:47.864Z,97039.31
2023-04-09T21:35:14.596Z,97058.94
2023-04-09T21:37:41.334Z,97028.63
2023-04-09T21:40:08.738Z,97042.75
2023-04-09T21:42:35.581Z,97046.13
2023-04-09T21:45:02.338Z,97047.69
2023-04-09T21:47:29.020Z,97055.03
2023-04-09T21:50:16.681Z,97069.41
2023-04-09T21:52:45.363Z,97087.66
2023-04-09T21:55:12.043Z,97077.47
2023-04-09T21:57:38.674Z,97084.00
2023-04-09T22:00:05.766Z,97070.69
2023-04-09T22:02:34.122Z,97064.16
2023-04-09T22:05:01.103Z,97081.91
2023-04-09T22:07:27.907Z,97043.78
2023-04-09T22:09:55.523Z,97083.22
2023-04-09T22:12:22.253Z,97072.25
2023-04-09T22:14:49.057Z,97070.44
2023-04-09T22:17:15.973Z,97056.84
2023-04-09T22:19:42.720Z,97083.00
2023-04-09T22:22:14.968Z,97084.31
2023-04-09T22:24:42.975Z,97075.38
2023-04-09T22:27:09.708Z,97057.56
2023-04-09T22:29:37.127Z,97062.00
2023-04-09T22:32:04.065Z,97014.06
2023-04-09T22:34:30.733Z,97082.38
2023-04-09T22:36:57.757Z,97048.16
2023-04-09T22:39:24.628Z,97063.88
2023-04-09T22:41:52.120Z,97074.88
2023-04-09T22:44:18.879Z,97050.31
2023-04-09T22:46:46.323Z,97078.81
2023-04-09T22:49:13.174Z,97071.97
2023-04-09T22:51:41.740Z,97066.72
2023-04-09T22:54:08.994Z,97075.88
2023-04-09T22:56:36.699Z,97091.56
2023-04-09T22:59:03.514Z,97068.00
2023-04-09T23:01:31.560Z,97063.84
2023-04-09T23:03:58.347Z,97052.09
2023-04-09T23:06:25.906Z,97092.09
2023-04-09T23:08:52.809Z,97095.47
2023-04-09T23:11:19.773Z,97087.88
2023-04-09T23:13:46.538Z,97055.66
2023-04-09T23:16:13.628Z,97085.28
2023-04-09T23:18:40.752Z,97078.50
2023-04-09T23:21:08.362Z,97093.72
2023-04-09T23:23:36.118Z,97084.41
2023-04-09T23:26:03.573Z,97104.00
2023-04-09T23:28:31.100Z,97106.28
2023-04-09T23:30:58.071Z,97082.69
2023-04-09T23:33:24.967Z,97078.94
2023-04-09T23:35:51.777Z,97107.53
2023-04-09T23:38:18.906Z,97087.38
2023-04-09T23:40:47.395Z,97108.06
2023-04-09T23:43:14.250Z,97096.31
2023-04-09T23:45:41.206Z,97081.69
2023-04-09T23:48:08.932Z,97063.88
2023-04-09T23:50:42.191Z,97069.16
2023-04-09T23:53:09.067Z,97087.44
2023-04-09T23:55:40.772Z,97066.09
2023-04-09T23:58:07.869Z,97083.91
